createdAt,value
2022-08-30T00:04:02.389Z,100.00
2022-08-30T00:08:59.819Z,100.00
2022-08-30T00:13:57.408Z,100.00
2022-08-30T00:18:54.935Z,100.00
2022-08-30T00:23:52.370Z,100.00
2022-08-30T00:28:48.730Z,100.00
2022-08-30T00:33:45.136Z,100.00
2022-08-30T00:38:41.643Z,100.00
2022-08-30T00:43:38.041Z,100.00
2022-08-30T00:48:37.573Z,100.00
2022-08-30T00:53:42.070Z,100.00
2022-08-30T00:58:42.413Z,100.00
2022-08-30T01:03:40.212Z,100.00
2022-08-30T01:08:36.921Z,100.00
2022-08-30T01:13:35.247Z,100.00
2022-08-30T01:18:32.098Z,100.00
2022-08-30T01:23:30.035Z,100.00
2022-08-30T01:28:27.635Z,100.00
2022-08-30T01:33:24.773Z,100.00
2022-08-30T01:38:24.866Z,100.00
2022-08-30T01:43:21.259Z,100.00
2022-08-30T01:48:17.806Z,100.00
2022-08-30T01:53:14.289Z,100.00
2022-08-30T01:58:10.881Z,100.00
2022-08-30T02:03:07.627Z,100.00
2022-08-30T02:08:04.753Z,100.00
2022-08-30T02:13:01.276Z,100.00
2022-08-30T02:17:57.645Z,100.00
2022-08-30T02:23:01.220Z,100.00
2022-08-30T02:27:57.789Z,100.00
2022-08-30T02:32:54.140Z,100.00
2022-08-30T02:37:50.510Z,100.00
2022-08-30T02:42:47.016Z,100.00
2022-08-30T02:47:46.835Z,100.00
2022-08-30T02:52:45.297Z,100.00
2022-08-30T02:57:45.073Z,100.00
2022-08-30T03:02:42.104Z,100.00
2022-08-30T03:07:39.520Z,100.00
2022-08-30T03:12:36.150Z,100.00
2022-08-30T03:17:32.574Z,100.00
2022-08-30T03:22:29.566Z,100.00
2022-08-30T03:27:26.542Z,100.00
2022-08-30T03:32:23.910Z,100.00
2022-08-30T03:37:24.390Z,100.00
2022-08-30T03:42:24.819Z,100.00
2022-08-30T03:47:21.494Z,100.00
2022-08-30T03:52:17.854Z,100.00
2022-08-30T03:57:19.672Z,100.00
2022-08-30T04:02:16.771Z,100.00
2022-08-30T04:07:13.160Z,100.00
2022-08-30T04:12:09.538Z,100.00
2022-08-30T04:17:06.273Z,100.00
2022-08-30T04:22:02.770Z,100.00
2022-08-30T04:26:59.134Z,100.00
2022-08-30T04:31:55.679Z,100.00
2022-08-30T04:36:52.332Z,100.00
2022-08-30T04:41:49.161Z,100.00
2022-08-30T04:46:45.618Z,100.00
2022-08-30T04:51:42.035Z,100.00
2022-08-30T04:56:38.393Z,100.00
2022-08-30T05:01:36.754Z,100.00
2022-08-30T05:06:42.450Z,100.00
2022-08-30T05:11:38.904Z,100.00
2022-08-30T05:16:35.787Z,100.00
2022-08-30T05:21:32.286Z,100.00
2022-08-30T05:26:31.549Z,100.00
2022-08-30T05:31:34.641Z,100.00
2022-08-30T05:36:34.543Z,100.00
2022-08-30T05:41:30.917Z,100.00
2022-08-30T05:51:37.388Z,100.00
2022-08-30T05:56:42.376Z,100.00
2022-08-30T06:01:42.050Z,100.00
2022-08-30T06:06:40.442Z,100.00
2022-08-30T06:11:37.022Z,100.00
2022-08-30T06:16:35.565Z,100.00
2022-08-30T06:21:37.953Z,100.00
2022-08-30T06:26:39.023Z,100.00
2022-08-30T06:31:35.555Z,100.00
2022-08-30T06:36:32.740Z,100.00
2022-08-30T06:41:31.807Z,100.00
2022-08-30T06:46:33.456Z,100.00
2022-08-30T06:51:34.415Z,100.00
2022-08-30T06:56:31.829Z,100.00
2022-08-30T07:01:29.616Z,100.00
2022-08-30T07:06:26.692Z,100.00
2022-08-30T07:11:37.749Z,100.00
2022-08-30T07:16:34.590Z,100.00
2022-08-30T07:21:43.235Z,100.00
2022-08-30T07:26:43.405Z,100.00
2022-08-30T07:31:40.113Z,100.00
2022-08-30T07:36:38.242Z,100.00
2022-08-30T07:41:38.707Z,100.00
2022-08-30T07:46:36.913Z,100.00
2022-08-30T07:51:33.438Z,100.00
2022-08-30T07:56:29.878Z,100.00
2022-08-30T08:01:26.325Z,100.00
2022-08-30T08:06:23.515Z,100.00
2022-08-30T08:11:26.826Z,100.00
2022-08-30T08:16:28.813Z,100.00
2022-08-30T08:21:27.131Z,100.00
2022-08-30T08:26:23.513Z,100.00
2022-08-30T08:31:31.425Z,100.00
2022-08-30T08:36:31.275Z,100.00
2022-08-30T08:41:51.560Z,100.00
2022-08-30T08:47:17.923Z,100.00
2022-08-30T08:52:41.199Z,100.00
2022-08-30T08:57:38.075Z,100.00
2022-08-30T09:02:47.601Z,100.00
2022-08-30T09:07:50.129Z,100.00
2022-08-30T09:12:46.860Z,100.00
2022-08-30T09:18:19.846Z,100.00
2022-08-30T09:23:16.327Z,100.00
2022-08-30T09:28:16.219Z,100.00
2022-08-30T09:33:20.420Z,100.00
2022-08-30T09:38:20.751Z,100.00
2022-08-30T09:43:17.117Z,100.00
2022-08-30T09:48:29.188Z,100.00
2022-08-30T09:53:34.396Z,100.00
2022-08-30T09:58:53.628Z,100.00
2022-08-30T10:04:05.544Z,100.00
2022-08-30T10:09:13.053Z,100.00
2022-08-30T10:14:30.603Z,100.00
2022-08-30T10:19:33.173Z,100.00
2022-08-30T10:24:37.816Z,100.00
2022-08-30T10:29:42.273Z,100.00
2022-08-30T10:34:46.317Z,100.00
2022-08-30T10:39:48.887Z,100.00
2022-08-30T10:44:50.867Z,100.00
2022-08-30T10:49:49.494Z,100.00
2022-08-30T10:54:59.808Z,100.00
2022-08-30T11:00:27.303Z,100.00
2022-08-30T11:05:41.945Z,100.00
2022-08-30T11:10:50.678Z,100.00
2022-08-30T11:16:10.388Z,100.00
2022-08-30T11:21:25.290Z,100.00
2022-08-30T11:26:49.935Z,100.00
2022-08-30T11:31:46.805Z,100.00
2022-08-30T11:36:46.202Z,97.59
2022-08-30T11:41:48.272Z,100.00
2022-08-30T11:46:45.523Z,100.00
2022-08-30T11:51:58.249Z,100.00
2022-08-30T11:57:10.940Z,100.00
2022-08-30T12:02:08.057Z,100.00
2022-08-30T12:07:08.502Z,100.00
2022-08-30T12:12:12.432Z,98.94
2022-08-30T12:17:40.352Z,98.24
2022-08-30T12:22:38.011Z,96.61
2022-08-30T12:27:34.354Z,92.69
2022-08-30T12:32:32.962Z,94.89
2022-08-30T12:37:33.600Z,87.23
2022-08-30T12:42:33.516Z,80.66
2022-08-30T12:47:56.052Z,71.94
2022-08-30T12:53:14.288Z,67.06
2022-08-30T12:58:13.947Z,65.06
2022-08-30T13:03:31.995Z,65.04
2022-08-30T13:08:37.147Z,64.40
2022-08-30T13:13:41.395Z,61.82
2022-08-30T13:18:40.660Z,60.16
2022-08-30T13:23:37.940Z,59.13
2022-08-30T13:29:00.337Z,71.46
2022-08-30T13:33:57.663Z,67.54
2022-08-30T13:38:54.024Z,75.17
2022-08-30T13:54:34.973Z,78.34
2022-08-30T13:59:33.302Z,70.17
2022-08-30T14:04:29.789Z,65.09
2022-08-30T14:09:26.600Z,65.18
2022-08-30T14:14:41.481Z,67.34
2022-08-30T14:19:39.711Z,69.67
2022-08-30T14:24:36.031Z,71.04
2022-08-30T14:29:32.727Z,70.33
2022-08-30T14:34:29.317Z,69.09
2022-08-30T14:39:26.153Z,78.77
2022-08-30T14:44:23.230Z,79.47
2022-08-30T14:49:20.376Z,67.73
2022-08-30T14:54:17.797Z,65.22
2022-08-30T14:59:15.155Z,71.26
2022-08-30T15:04:14.880Z,67.85
2022-08-30T15:09:14.315Z,62.85
2022-08-30T15:14:16.004Z,61.28
2022-08-30T15:19:12.847Z,62.93
2022-08-30T15:24:13.052Z,65.14
2022-08-30T15:29:14.894Z,67.69
2022-08-30T15:34:14.401Z,71.41
2022-08-30T15:39:12.746Z,74.36
2022-08-30T15:44:11.560Z,65.44
2022-08-30T15:49:13.038Z,58.46
2022-08-30T15:54:12.238Z,57.40
2022-08-30T15:59:10.199Z,56.46
2022-08-30T16:04:07.180Z,55.24
2022-08-30T16:09:06.626Z,58.52
2022-08-30T16:14:04.884Z,58.19
2022-08-30T16:19:01.510Z,58.81
2022-08-30T16:24:00.213Z,60.42
2022-08-30T16:28:57.160Z,57.49
2022-08-30T16:33:54.946Z,54.52
2022-08-30T16:38:57.988Z,54.63
2022-08-30T16:43:55.635Z,51.46
2022-08-30T16:48:52.380Z,42.59
2022-08-30T16:53:49.846Z,35.79
2022-08-30T16:58:48.253Z,34.48
2022-08-30T17:03:44.633Z,33.46
2022-08-30T17:08:42.861Z,34.09
2022-08-30T17:13:39.536Z,35.23
2022-08-30T17:18:35.993Z,35.25
2022-08-30T17:23:33.980Z,37.74
2022-08-30T17:28:30.608Z,39.40
2022-08-30T17:33:27.217Z,40.45
2022-08-30T17:38:23.727Z,42.21
2022-08-30T17:43:20.131Z,44.92
2022-08-30T17:48:17.170Z,50.02
2022-08-30T17:53:13.610Z,54.46
2022-08-30T17:58:09.961Z,56.13
2022-08-30T18:03:06.435Z,58.77
2022-08-30T18:08:03.199Z,62.42
2022-08-30T18:12:59.772Z,70.48
2022-08-30T18:17:56.106Z,80.22
2022-08-30T18:22:52.521Z,88.46
2022-08-30T18:27:57.193Z,90.27
2022-08-30T18:32:55.407Z,90.50
2022-08-30T18:37:52.447Z,94.19
2022-08-30T18:42:49.009Z,100.00
2022-08-30T18:47:45.457Z,100.00
2022-08-30T18:52:42.071Z,100.00
2022-08-30T18:57:41.673Z,100.00
2022-08-30T19:02:39.027Z,100.00
2022-08-30T19:07:40.474Z,100.00
2022-08-30T19:12:36.853Z,100.00
2022-08-30T19:17:33.673Z,100.00
2022-08-30T19:22:36.079Z,100.00
2022-08-30T19:27:47.638Z,100.00
2022-08-30T19:32:47.771Z,100.00
2022-08-30T19:37:44.991Z,100.00
2022-08-30T19:42:45.951Z,100.00
2022-08-30T19:47:42.922Z,100.00
2022-08-30T19:52:40.135Z,100.00
2022-08-30T19:57:37.130Z,100.00
2022-08-30T20:02:34.952Z,100.00
2022-08-30T20:07:35.408Z,100.00
2022-08-30T20:12:34.324Z,100.00
2022-08-30T20:17:42.451Z,100.00
2022-08-30T20:22:50.967Z,100.00
2022-08-30T20:27:50.644Z,100.00
2022-08-30T20:32:47.101Z,100.00
2022-08-30T20:37:44.338Z,100.00
2022-08-30T20:42:43.622Z,100.00
2022-08-30T20:47:41.016Z,100.00
2022-08-30T20:52:37.457Z,100.00
2022-08-30T20:57:34.041Z,100.00
2022-08-30T21:02:31.482Z,100.00
2022-08-30T21:07:28.180Z,100.00
2022-08-30T21:12:25.132Z,100.00
2022-08-30T21:17:21.528Z,100.00
2022-08-30T21:22:17.873Z,100.00
2022-08-30T21:27:15.279Z,100.00
2022-08-30T21:32:11.672Z,100.00
2022-08-30T21:37:08.095Z,100.00
2022-08-30T21:42:04.521Z,100.00
2022-08-30T21:47:00.943Z,100.00
2022-08-30T21:51:57.321Z,100.00
2022-08-30T21:57:00.567Z,100.00
2022-08-30T22:01:57.536Z,100.00
2022-08-30T22:06:54.141Z,100.00
2022-08-30T22:11:51.056Z,100.00
2022-08-30T22:16:48.887Z,100.00
2022-08-30T22:21:47.878Z,100.00
2022-08-30T22:26:45.901Z,100.00
2022-08-30T22:31:42.292Z,100.00
2022-08-30T22:36:38.914Z,100.00
2022-08-30T22:41:36.475Z,100.00
2022-08-30T22:46:34.289Z,100.00
2022-08-30T22:51:31.475Z,100.00
2022-08-30T22:56:28.666Z,100.00
2022-08-30T23:01:34.629Z,100.00
2022-08-30T23:06:31.584Z,100.00
2022-08-30T23:11:27.948Z,100.00
2022-08-30T23:16:26.965Z,100.00
2022-08-30T23:21:26.691Z,100.00
2022-08-30T23:26:42.016Z,100.00
2022-08-30T23:31:56.997Z,100.00
2022-08-30T23:37:12.205Z,100.00
2022-08-30T23:42:27.095Z,100.00
2022-08-30T23:47:42.062Z,100.00
2022-08-30T23:52:57.375Z,100.00
2022-08-30T23:58:12.343Z,100.00
